Schaan, Liechtenstein
Current Conditions -  °F | °C
As of 2:20 PM on Friday 24 Oct 2014 (Local Time) from LSZR Reporting Station
Few Clouds Few Clouds  
Wind Chill: 50°   Ceiling: Unl
Heat Index: 50°   Visibility: 6mi
Dew Point: 36°   Wind: 2mph
Humidity: 58%   Direction: NA
Pressure: 30.15"   Gusts: NA
Location:  47.17°N, 9.51°E
Report Text: LSZR 241220Z VRB02KT 9999 FEW025 10/02 Q1021 NOSIG RMK I
Loading
Personal Weather Stations






























Interactive Weather Map
Tropical Storm Tracking
New forecast layout! Learn more

10-Day Weather Forecast

Advertisements
Track Severe Weather on mobile